Time;durP1;ratioP1;P1;durP2;ratioP2;P2;SDS_P1;SDS_P2;PMS_P1;PMS_P2;Temp;Humidity;BMP_temperature;BMP_pressure;BME280_temperature;BME280_humidity;BME280_pressure;Samples;Min_cycle;Max_cycle;Signal;HPM_P1;HPM_P2
2024/01/01 00:01:30;;;;;;;13.50;4.70;;;9.30;99.90;;;;;;5051618;28;20144;-56
2024/01/01 00:03:55;;;;;;;13.57;4.50;;;9.30;99.90;;;;;;5051519;28;20056;-56
2024/01/01 00:06:21;;;;;;;10.20;4.10;;;9.30;99.90;;;;;;5051447;28;20063;-54
2024/01/01 00:08:46;;;;;;;13.17;4.50;;;9.30;99.90;;;;;;5051278;28;20036;-52
2024/01/01 00:11:12;;;;;;;12.37;3.23;;;9.30;99.90;;;;;;5051310;28;20029;-55
2024/01/01 00:13:37;;;;;;;11.17;3.17;;;9.40;99.90;;;;;;5053332;28;20074;-55
2024/01/01 00:16:03;;;;;;;11.37;3.73;;;9.40;99.90;;;;;;5055478;28;20047;-55
2024/01/01 00:18:29;;;;;;;9.77;2.83;;;9.30;99.90;;;;;;5055419;28;20067;-56
2024/01/01 00:20:55;;;;;;;7.23;3.20;;;9.30;99.90;;;;;;5055172;28;20035;-53
2024/01/01 00:23:20;;;;;;;7.43;2.77;;;9.30;99.90;;;;;;5055138;28;20025;-54
2024/01/01 00:25:46;;;;;;;9.93;3.53;;;9.30;99.90;;;;;;5055205;28;20116;-54
2024/01/01 00:28:11;;;;;;;7.30;3.27;;;9.40;99.90;;;;;;5055097;28;20024;-52
2024/01/01 00:30:38;;;;;;;11.63;4.43;;;9.40;99.90;;;;;;5054920;28;20175;-54
2024/01/01 00:33:04;;;;;;;9.07;3.97;;;9.30;99.90;;;;;;5055034;28;20025;-52
2024/01/01 00:35:29;;;;;;;11.27;4.30;;;9.30;99.90;;;;;;5055029;28;20496;-54
2024/01/01 00:37:55;;;;;;;9.33;4.30;;;9.30;99.90;;;;;;5037138;28;20074;-53
2024/01/01 00:40:21;;;;;;;14.10;5.17;;;9.30;99.90;;;;;;5036849;28;20489;-54
2024/01/01 00:42:47;;;;;;;12.37;4.70;;;9.30;99.90;;;;;;5054755;28;20367;-55
2024/01/01 00:45:13;;;;;;;8.83;3.40;;;9.20;99.90;;;;;;5054968;28;20108;-55
2024/01/01 00:47:39;;;;;;;10.70;3.70;;;9.20;99.90;;;;;;5054737;28;20082;-55
2024/01/01 00:50:05;;;;;;;11.27;3.83;;;9.20;99.90;;;;;;5036586;28;20449;-56
2024/01/01 00:52:31;;;;;;;9.40;3.17;;;9.20;99.90;;;;;;5036800;28;20037;-55
2024/01/01 00:54:57;;;;;;;7.73;3.10;;;9.20;99.90;;;;;;5054742;28;20021;-56
2024/01/01 00:57:23;;;;;;;9.43;3.33;;;9.20;99.90;;;;;;5036725;28;20127;-54
2024/01/01 00:59:48;;;;;;;12.47;3.30;;;9.20;99.90;;;;;;5036501;28;20029;-54
2024/01/01 01:02:14;;;;;;;8.67;2.83;;;9.10;99.90;;;;;;5054513;28;20119;-54
2024/01/01 01:04:45;;;;;;;7.13;2.60;;;9.10;99.90;;;;;;5054466;28;20860;-53
2024/01/01 01:07:10;;;;;;;6.00;2.30;;;9.10;99.90;;;;;;5054614;28;20545;-52
2024/01/01 01:09:36;;;;;;;10.77;3.20;;;9.10;99.90;;;;;;5054084;28;20312;-54
2024/01/01 01:12:01;;;;;;;8.03;2.33;;;9.10;99.90;;;;;;5020107;28;20033;-53
2024/01/01 01:14:27;;;;;;;6.90;2.43;;;9.20;99.90;;;;;;5054331;28;20159;-55
2024/01/01 01:16:53;;;;;;;7.97;1.90;;;9.10;99.90;;;;;;5036388;28;20071;-52
2024/01/01 01:19:19;;;;;;;6.43;1.67;;;9.20;99.90;;;;;;5053933;28;20036;-52
2024/01/01 01:21:44;;;;;;;9.43;1.90;;;9.10;99.90;;;;;;5054101;28;20035;-54
2024/01/01 01:24:15;;;;;;;12.90;4.07;;;9.10;99.90;;;;;;5053708;28;20022;-55
2024/01/01 01:26:41;;;;;;;7.00;2.13;;;9.10;99.90;;;;;;5053858;28;20029;-55
2024/01/01 01:29:07;;;;;;;6.73;1.83;;;9.20;99.90;;;;;;5035969;28;20029;-54
2024/01/01 01:31:32;;;;;;;8.40;1.77;;;9.20;99.90;;;;;;5053802;28;20500;-51
2024/01/01 01:33:58;;;;;;;5.53;1.27;;;9.20;99.90;;;;;;5036031;28;20478;-52
2024/01/01 01:36:23;;;;;;;9.73;1.33;;;9.20;99.90;;;;;;5053934;28;20021;-51
2024/01/01 01:38:49;;;;;;;5.87;1.60;;;9.10;99.90;;;;;;5019316;28;20029;-50
2024/01/01 01:41:15;;;;;;;6.03;1.30;;;9.20;99.90;;;;;;5053789;28;20031;-52
2024/01/01 01:43:40;;;;;;;6.57;1.50;;;9.10;99.90;;;;;;5035840;28;20048;-55
2024/01/01 01:46:06;;;;;;;5.03;1.13;;;9.10;99.90;;;;;;5036154;28;20025;-51
2024/01/01 01:48:32;;;;;;;3.33;0.87;;;9.10;99.90;;;;;;5035497;28;20039;-52
2024/01/01 01:50:58;;;;;;;8.63;1.20;;;9.10;99.90;;;;;;5035632;28;20037;-51
2024/01/01 01:53:25;;;;;;;7.27;1.33;;;9.00;99.90;;;;;;5035710;28;20108;-54
2024/01/01 01:55:53;;;;;;;6.93;1.10;;;8.90;99.90;;;;;;5053578;28;20040;-54
2024/01/01 01:58:18;;;;;;;7.53;1.20;;;8.90;99.90;;;;;;5053538;28;20039;-53
2024/01/01 02:00:48;;;;;;;5.93;1.13;;;8.80;99.90;;;;;;5035309;28;20480;-52
2024/01/01 02:03:14;;;;;;;7.13;1.58;;;8.70;99.90;;;;;;5035487;28;20151;-54
2024/01/01 02:05:39;;;;;;;5.03;1.50;;;8.70;99.90;;;;;;5035579;28;20033;-55
2024/01/01 02:08:06;;;;;;;6.47;1.90;;;8.70;99.90;;;;;;5035441;28;20539;-56
2024/01/01 02:10:32;;;;;;;6.90;1.13;;;8.60;99.90;;;;;;5035211;28;20064;-56
2024/01/01 02:12:59;;;;;;;4.30;0.93;;;8.40;99.90;;;;;;5019152;28;20439;-56
2024/01/01 02:15:24;;;;;;;4.00;1.40;;;8.30;99.90;;;;;;5053128;28;20535;-54
2024/01/01 02:17:50;;;;;;;6.40;1.30;;;8.10;99.90;;;;;;5053024;28;20021;-54
2024/01/01 02:20:16;;;;;;;8.10;2.13;;;7.90;99.90;;;;;;5035038;28;20029;-56
2024/01/01 02:22:42;;;;;;;4.87;2.03;;;7.80;99.90;;;;;;5035257;28;20445;-54
2024/01/01 02:25:09;;;;;;;7.13;1.50;;;7.70;99.90;;;;;;5035254;28;20065;-55
2024/01/01 02:27:36;;;;;;;3.83;1.67;;;7.50;99.90;;;;;;5052889;28;20029;-53
2024/01/01 02:30:02;;;;;;;6.90;2.43;;;7.40;99.90;;;;;;5034596;28;20043;-53
2024/01/01 02:32:28;;;;;;;8.80;2.00;;;7.40;99.90;;;;;;5052671;28;20072;-52
2024/01/01 02:34:54;;;;;;;8.00;2.50;;;7.20;99.90;;;;;;5034879;28;20052;-53
2024/01/01 02:37:19;;;;;;;7.00;2.33;;;7.20;99.90;;;;;;5052465;28;20024;-55
2024/01/01 02:39:45;;;;;;;8.23;2.37;;;7.20;99.90;;;;;;5034635;28;20056;-52
2024/01/01 02:42:10;;;;;;;7.63;2.10;;;7.10;99.90;;;;;;5052630;28;20036;-55
2024/01/01 02:44:36;;;;;;;3.23;1.60;;;7.10;99.90;;;;;;5034586;28;20124;-54
2024/01/01 02:47:02;;;;;;;5.73;1.40;;;7.10;99.90;;;;;;5052497;28;20465;-56
2024/01/01 02:49:27;;;;;;;3.97;1.23;;;7.10;99.90;;;;;;5034266;28;20078;-56
2024/01/01 02:51:53;;;;;;;4.03;1.20;;;7.10;99.90;;;;;;5034603;28;20063;-55
2024/01/01 02:54:19;;;;;;;6.03;0.97;;;7.10;99.90;;;;;;5034505;28;20383;-51
2024/01/01 02:56:45;;;;;;;3.10;0.80;;;7.10;99.90;;;;;;5052353;28;20028;-53
2024/01/01 02:59:11;;;;;;;5.70;0.90;;;7.10;99.90;;;;;;5052032;28;20024;-55
2024/01/01 03:01:36;;;;;;;4.43;0.80;;;7.10;99.90;;;;;;5034652;28;20394;-54
2024/01/01 03:04:02;;;;;;;6.13;0.90;;;7.10;99.90;;;;;;5034450;28;20029;-55
2024/01/01 03:06:28;;;;;;;6.20;0.97;;;7.10;99.90;;;;;;5034313;28;20064;-53
2024/01/01 03:08:53;;;;;;;4.23;0.80;;;7.00;99.90;;;;;;5034044;28;20035;-54
2024/01/01 03:11:19;;;;;;;4.73;0.87;;;7.10;99.90;;;;;;5034260;28;20033;-54
2024/01/01 03:13:45;;;;;;;2.70;0.90;;;7.10;99.90;;;;;;5051997;28;20032;-55
2024/01/01 03:16:10;;;;;;;7.03;0.97;;;7.10;99.90;;;;;;5052066;28;20108;-54
2024/01/01 03:18:36;;;;;;;4.93;0.90;;;7.10;99.90;;;;;;5051912;28;20417;-54
2024/01/01 03:21:03;;;;;;;3.20;0.87;;;7.20;99.90;;;;;;5034221;28;20025;-54
2024/01/01 03:23:29;;;;;;;2.93;0.83;;;7.20;99.90;;;;;;5034159;28;20075;-55
2024/01/01 03:25:54;;;;;;;3.57;1.10;;;7.20;99.90;;;;;;5052038;28;20079;-54
2024/01/01 03:28:20;;;;;;;5.80;1.30;;;7.20;99.90;;;;;;5051877;28;20104;-51
2024/01/01 03:30:45;;;;;;;6.70;1.00;;;7.20;99.90;;;;;;5033733;28;20036;-54
2024/01/01 03:33:12;;;;;;;12.00;1.67;;;7.30;99.90;;;;;;5033962;28;20029;-55
2024/01/01 03:35:37;;;;;;;7.30;1.10;;;7.30;99.90;;;;;;5051821;28;20078;-54
2024/01/01 03:38:03;;;;;;;6.57;1.57;;;7.30;99.90;;;;;;5033932;28;20420;-53
2024/01/01 03:40:30;;;;;;;10.07;0.97;;;7.30;99.90;;;;;;5033740;28;20564;-54
2024/01/01 03:42:56;;;;;;;6.30;1.27;;;7.30;99.90;;;;;;5051552;28;20037;-53
2024/01/01 03:45:21;;;;;;;11.53;1.67;;;7.30;99.90;;;;;;5017340;28;20033;-52
2024/01/01 03:47:47;;;;;;;7.03;1.27;;;7.30;99.90;;;;;;5051014;28;20033;-54
2024/01/01 03:50:14;;;;;;;9.33;1.90;;;7.40;99.90;;;;;;5051552;28;20060;-55
2024/01/01 03:52:40;;;;;;;5.90;1.10;;;7.40;99.90;;;;;;5051595;28;20029;-53
2024/01/01 03:55:06;;;;;;;6.43;1.20;;;7.40;99.90;;;;;;5051661;28;20032;-55
2024/01/01 03:57:33;;;;;;;8.73;1.90;;;7.30;99.90;;;;;;5051537;28;20025;-55
2024/01/01 03:59:59;;;;;;;4.83;1.37;;;7.30;99.90;;;;;;5051342;28;20025;-55
2024/01/01 04:02:24;;;;;;;4.57;1.37;;;7.30;99.90;;;;;;5033670;28;20029;-54
2024/01/01 04:04:51;;;;;;;5.87;1.33;;;7.40;99.90;;;;;;5033743;28;20075;-54
2024/01/01 04:07:17;;;;;;;8.80;1.70;;;7.50;99.90;;;;;;5033838;28;20048;-54
2024/01/01 04:09:45;;;;;;;7.57;1.40;;;7.50;99.90;;;;;;5051153;28;20385;-54
2024/01/01 04:12:11;;;;;;;11.73;1.75;;;7.50;99.90;;;;;;5033673;28;20112;-55
2024/01/01 04:14:36;;;;;;;9.73;2.00;;;7.50;99.90;;;;;;5033590;28;20486;-55
2024/01/01 04:17:03;;;;;;;8.37;1.40;;;7.50;99.90;;;;;;5033729;28;20036;-50
2024/01/01 04:19:29;;;;;;;8.17;1.90;;;7.60;99.90;;;;;;5051166;28;20056;-52
2024/01/01 04:21:55;;;;;;;10.20;2.00;;;7.70;99.90;;;;;;5051369;28;20098;-54
2024/01/01 04:24:21;;;;;;;9.97;1.63;;;7.70;99.90;;;;;;5051362;28;20032;-53
2024/01/01 04:26:46;;;;;;;13.83;3.47;;;7.80;99.90;;;;;;5051401;28;20124;-54
2024/01/01 04:29:13;;;;;;;5.47;1.77;;;7.80;99.90;;;;;;5051083;28;20025;-55
2024/01/01 04:31:39;;;;;;;13.73;3.20;;;7.80;99.90;;;;;;5051173;28;20033;-56
2024/01/01 04:34:04;;;;;;;16.07;4.10;;;7.80;99.90;;;;;;5051362;28;20022;-55
2024/01/01 04:36:30;;;;;;;10.83;1.77;;;7.80;99.90;;;;;;5051297;28;20056;-53
2024/01/01 04:38:55;;;;;;;7.00;1.77;;;7.80;99.90;;;;;;5050889;28;20437;-54
2024/01/01 04:41:21;;;;;;;7.70;1.60;;;7.80;99.90;;;;;;5051262;28;20335;-52
2024/01/01 04:43:46;;;;;;;12.23;1.70;;;7.90;99.90;;;;;;5051067;28;20037;-55
2024/01/01 04:46:12;;;;;;;11.73;1.63;;;7.90;99.90;;;;;;5051194;28;20505;-55
2024/01/01 04:48:38;;;;;;;7.47;1.80;;;7.90;99.90;;;;;;5050845;28;20060;-55
2024/01/01 04:51:04;;;;;;;9.03;1.40;;;7.80;99.90;;;;;;5051024;28;20029;-54
2024/01/01 04:53:30;;;;;;;15.03;2.30;;;7.90;99.90;;;;;;5051156;28;20029;-54
2024/01/01 04:55:55;;;;;;;8.90;1.50;;;8.00;99.90;;;;;;5051064;28;20024;-53
2024/01/01 04:58:21;;;;;;;9.73;1.50;;;8.00;99.90;;;;;;5051011;28;20059;-54
2024/01/01 05:00:46;;;;;;;5.50;1.23;;;8.00;99.90;;;;;;5054300;28;20394;-54
2024/01/01 05:03:13;;;;;;;9.73;1.43;;;8.00;99.90;;;;;;5054439;28;20029;-51
2024/01/01 05:05:38;;;;;;;4.67;1.17;;;8.00;99.90;;;;;;5054586;28;20032;-51
2024/01/01 05:08:05;;;;;;;6.53;1.20;;;8.00;99.90;;;;;;5054443;28;20379;-54
2024/01/01 05:10:31;;;;;;;8.13;2.23;;;8.00;99.90;;;;;;5054130;28;20086;-55
2024/01/01 05:12:56;;;;;;;6.43;1.40;;;8.10;99.90;;;;;;5054307;28;20033;-51
2024/01/01 05:15:22;;;;;;;6.13;1.47;;;8.10;99.90;;;;;;5054473;28;20029;-51
2024/01/01 05:17:48;;;;;;;7.23;1.73;;;8.20;99.90;;;;;;5054295;28;20100;-53
2024/01/01 05:20:13;;;;;;;10.50;1.73;;;8.20;99.90;;;;;;5054114;28;20024;-55
2024/01/01 05:22:40;;;;;;;5.87;1.60;;;8.20;99.90;;;;;;5054200;28;20197;-53
2024/01/01 05:25:07;;;;;;;9.80;1.93;;;8.20;99.90;;;;;;5054198;28;20396;-53
2024/01/01 05:27:32;;;;;;;4.40;1.10;;;8.20;99.90;;;;;;5054090;28;20032;-51
2024/01/01 05:29:58;;;;;;;9.00;1.80;;;8.30;99.90;;;;;;5053767;28;20036;-52
2024/01/01 05:32:24;;;;;;;8.87;1.57;;;8.30;99.90;;;;;;5054004;28;20024;-53
2024/01/01 05:34:49;;;;;;;8.00;1.10;;;8.20;99.90;;;;;;5053948;28;20482;-52
2024/01/01 05:37:15;;;;;;;11.50;1.73;;;8.30;99.90;;;;;;5054014;28;20044;-51
2024/01/01 05:39:41;;;;;;;5.57;1.13;;;8.30;99.90;;;;;;5053672;28;20033;-55
2024/01/01 05:42:06;;;;;;;9.07;1.43;;;8.30;99.90;;;;;;5053816;28;20477;-55
2024/01/01 05:44:32;;;;;;;8.43;1.27;;;8.30;99.90;;;;;;5053749;28;20155;-53
2024/01/01 05:46:57;;;;;;;7.47;1.27;;;8.40;99.90;;;;;;5053826;28;20065;-51
2024/01/01 05:49:23;;;;;;;8.90;1.33;;;8.30;99.90;;;;;;5053462;28;20025;-52
2024/01/01 05:51:49;;;;;;;7.30;1.30;;;8.30;99.90;;;;;;5053506;28;20111;-53
2024/01/01 05:54:15;;;;;;;8.93;1.70;;;8.30;99.90;;;;;;5053526;28;20028;-54
2024/01/01 05:56:41;;;;;;;8.20;1.57;;;8.40;99.90;;;;;;5053588;28;20047;-51
2024/01/01 05:59:06;;;;;;;6.93;1.17;;;8.40;99.90;;;;;;5053341;28;20074;-51
2024/01/01 06:01:32;;;;;;;9.97;1.97;;;8.40;99.90;;;;;;5053441;28;20071;-52
2024/01/01 06:03:58;;;;;;;9.97;1.80;;;8.30;99.90;;;;;;5053419;28;20029;-52
2024/01/01 06:06:24;;;;;;;7.97;1.20;;;8.30;99.90;;;;;;5053472;28;20044;-54
2024/01/01 06:08:50;;;;;;;10.47;1.97;;;8.40;99.90;;;;;;5053041;28;20036;-52
2024/01/01 06:11:16;;;;;;;6.67;1.40;;;8.40;99.90;;;;;;5052493;28;20029;-50
2024/01/01 06:13:43;;;;;;;9.70;1.50;;;8.30;99.90;;;;;;5053408;28;20031;-51
2024/01/01 06:16:08;;;;;;;11.57;1.60;;;8.40;99.90;;;;;;5018855;28;20577;-51
2024/01/01 06:18:34;;;;;;;13.60;1.70;;;8.40;99.90;;;;;;5052948;28;20116;-54
2024/01/01 06:20:59;;;;;;;8.37;1.50;;;8.40;99.90;;;;;;5053122;28;20500;-54
2024/01/01 06:23:25;;;;;;;11.07;1.80;;;8.40;99.90;;;;;;5052977;28;20168;-51
2024/01/01 06:25:52;;;;;;;13.03;1.83;;;8.40;99.90;;;;;;5052894;28;20033;-55
2024/01/01 06:28:18;;;;;;;9.00;2.50;;;8.30;99.90;;;;;;5052909;28;20029;-55
2024/01/01 06:30:44;;;;;;;5.87;1.57;;;8.40;99.90;;;;;;5052648;28;20110;-52
2024/01/01 06:33:09;;;;;;;5.00;0.93;;;8.40;99.90;;;;;;5052820;28;20053;-55
2024/01/01 06:35:35;;;;;;;5.40;0.90;;;8.40;99.90;;;;;;5052889;28;20462;-51
2024/01/01 06:38:01;;;;;;;8.00;1.90;;;8.40;99.90;;;;;;5052679;28;20078;-51
2024/01/01 06:40:27;;;;;;;4.53;1.10;;;8.30;99.90;;;;;;5052582;28;20025;-54
2024/01/01 06:42:52;;;;;;;7.33;0.90;;;8.30;99.90;;;;;;5052498;28;20037;-51
2024/01/01 06:45:18;;;;;;;2.80;0.70;;;8.20;99.90;;;;;;5052825;28;20029;-51
2024/01/01 06:47:44;;;;;;;2.63;0.50;;;8.20;99.90;;;;;;5052527;28;20508;-54
2024/01/01 06:50:09;;;;;;;6.50;1.40;;;8.20;99.90;;;;;;5052301;28;20121;-55
2024/01/01 06:52:35;;;;;;;5.50;1.20;;;8.10;99.90;;;;;;5034572;28;20040;-53
2024/01/01 06:55:01;;;;;;;7.93;1.33;;;8.10;99.90;;;;;;5052394;28;20047;-53
2024/01/01 06:57:26;;;;;;;3.73;0.90;;;8.00;99.90;;;;;;5052432;28;20063;-55
2024/01/01 06:59:52;;;;;;;6.83;0.97;;;7.90;99.90;;;;;;5052161;28;20481;-51
2024/01/01 07:02:18;;;;;;;7.47;1.20;;;7.90;99.90;;;;;;5052328;28;20025;-50
2024/01/01 07:04:44;;;;;;;5.77;1.70;;;7.80;99.90;;;;;;5052410;28;20036;-54
2024/01/01 07:07:10;;;;;;;3.07;1.20;;;7.80;99.90;;;;;;5052242;28;20093;-55
2024/01/01 07:09:35;;;;;;;3.87;1.17;;;7.70;99.90;;;;;;5052185;28;20500;-53
2024/01/01 07:12:20;;;;;;;6.40;1.23;;;7.70;99.90;;;;;;5034372;28;20056;-53
2024/01/01 07:14:47;;;;;;;4.00;1.27;;;7.70;99.90;;;;;;5052288;28;20478;-52
2024/01/01 07:17:13;;;;;;;4.67;1.40;;;7.70;99.90;;;;;;5052114;28;20032;-55
2024/01/01 07:19:38;;;;;;;4.80;1.23;;;7.70;99.90;;;;;;5051781;28;20036;-52
2024/01/01 07:22:04;;;;;;;9.30;1.30;;;7.70;99.90;;;;;;5051396;28;20025;-53
2024/01/01 07:24:30;;;;;;;4.93;1.47;;;7.60;99.90;;;;;;5051624;28;20440;-55
2024/01/01 07:26:57;;;;;;;3.43;1.37;;;7.60;99.90;;;;;;5051959;28;20390;-54
2024/01/01 07:29:25;;;;;;;9.30;1.97;;;7.60;99.90;;;;;;5051688;28;20037;-55
2024/01/01 07:31:51;;;;;;;10.27;1.65;;;7.60;99.90;;;;;;5033907;28;20473;-54
2024/01/01 07:34:19;;;;;;;5.57;1.80;;;7.60;99.90;;;;;;5051892;28;20029;-54
2024/01/01 07:36:44;;;;;;;7.37;1.37;;;7.70;99.90;;;;;;5051920;28;20115;-53
2024/01/01 07:39:10;;;;;;;6.00;1.00;;;7.70;99.90;;;;;;5051521;28;20021;-53
2024/01/01 07:41:36;;;;;;;4.13;1.37;;;7.60;99.90;;;;;;5051713;28;20390;-55
2024/01/01 07:44:02;;;;;;;8.73;1.80;;;7.60;99.90;;;;;;5051749;28;20068;-51
2024/01/01 07:46:28;;;;;;;9.40;1.90;;;7.70;99.90;;;;;;5051777;28;20108;-54
2024/01/01 07:48:55;;;;;;;5.37;1.30;;;7.70;99.90;;;;;;5051402;28;20086;-55
2024/01/01 07:51:21;;;;;;;3.73;1.20;;;7.70;99.90;;;;;;5051583;28;20037;-55
2024/01/01 07:53:48;;;;;;;8.03;1.00;;;7.70;99.90;;;;;;5051672;28;20539;-54
2024/01/01 07:56:14;;;;;;;6.20;1.33;;;7.70;99.90;;;;;;5051646;28;20174;-53
2024/01/01 07:58:39;;;;;;;3.00;0.90;;;7.70;99.90;;;;;;5051438;28;20108;-55
2024/01/01 08:01:06;;;;;;;7.57;1.37;;;7.60;99.90;;;;;;5051484;28;20112;-55
2024/01/01 08:03:32;;;;;;;6.47;1.00;;;7.70;99.90;;;;;;5051602;28;20037;-53
2024/01/01 08:05:58;;;;;;;5.27;1.53;;;7.60;99.90;;;;;;5051574;28;20174;-54
2024/01/01 08:08:23;;;;;;;3.60;1.10;;;7.70;99.90;;;;;;5051486;28;20070;-55
2024/01/01 08:10:49;;;;;;;5.87;1.40;;;7.60;99.90;;;;;;5051207;28;20205;-54
2024/01/01 08:13:15;;;;;;;7.43;1.47;;;7.60;99.90;;;;;;5051380;28;20501;-53
2024/01/01 08:15:40;;;;;;;4.80;1.13;;;7.60;99.90;;;;;;5051431;28;20555;-55
2024/01/01 08:18:06;;;;;;;4.53;1.50;;;7.70;99.90;;;;;;5051892;28;20497;-56
2024/01/01 08:20:32;;;;;;;6.47;1.20;;;7.70;99.90;;;;;;5051197;28;20025;-52
2024/01/01 08:22:57;;;;;;;2.50;1.07;;;7.70;99.90;;;;;;5051242;28;20075;-51
2024/01/01 08:25:23;;;;;;;3.30;1.17;;;7.70;99.90;;;;;;5051426;28;20102;-55
2024/01/01 08:27:49;;;;;;;4.40;1.03;;;7.70;99.90;;;;;;5051233;28;20033;-53
2024/01/01 08:30:14;;;;;;;4.13;1.00;;;7.70;99.90;;;;;;5050934;28;20029;-55
2024/01/01 08:32:40;;;;;;;2.77;0.90;;;7.70;99.90;;;;;;5051215;28;20112;-56
2024/01/01 08:35:06;;;;;;;4.37;1.40;;;7.70;99.90;;;;;;5053881;28;20021;-54
2024/01/01 08:37:32;;;;;;;4.67;1.30;;;7.70;99.90;;;;;;5055199;28;20284;-54
2024/01/01 08:39:58;;;;;;;5.10;1.67;;;7.70;99.90;;;;;;5054841;28;20486;-56
2024/01/01 08:42:24;;;;;;;7.33;1.80;;;7.70;99.90;;;;;;5054779;28;20473;-53
2024/01/01 08:44:50;;;;;;;5.77;1.30;;;7.80;99.90;;;;;;5037216;28;20047;-54
2024/01/01 08:47:16;;;;;;;3.63;1.40;;;7.70;99.90;;;;;;5054931;28;20025;-53
2024/01/01 08:49:42;;;;;;;6.70;1.60;;;7.70;99.90;;;;;;5054546;28;20029;-55
2024/01/01 08:52:07;;;;;;;4.93;1.40;;;7.70;99.90;;;;;;5054763;28;20028;-56
2024/01/01 08:54:33;;;;;;;6.83;1.47;;;7.70;99.90;;;;;;5054786;28;20078;-55
2024/01/01 08:56:59;;;;;;;6.87;1.17;;;7.70;99.90;;;;;;5054809;28;20385;-56
2024/01/01 08:59:24;;;;;;;4.60;1.10;;;7.70;99.90;;;;;;5054377;28;20120;-53
2024/01/01 09:01:50;;;;;;;4.13;1.20;;;7.70;99.90;;;;;;5054581;28;20108;-54
2024/01/01 09:04:17;;;;;;;2.43;1.03;;;7.70;99.90;;;;;;5054619;28;20489;-54
2024/01/01 09:06:43;;;;;;;3.77;0.83;;;7.70;99.90;;;;;;5054523;28;20037;-53
2024/01/01 09:09:10;;;;;;;7.10;1.20;;;7.70;99.90;;;;;;5054500;28;20121;-53
2024/01/01 09:11:36;;;;;;;4.27;0.90;;;7.70;99.90;;;;;;5054366;28;20033;-54
2024/01/01 09:14:02;;;;;;;7.43;1.57;;;7.70;99.90;;;;;;5054415;28;20021;-54
2024/01/01 09:16:29;;;;;;;2.63;0.90;;;7.80;99.90;;;;;;5054498;28;20477;-52
2024/01/01 09:18:56;;;;;;;5.23;1.00;;;7.70;99.90;;;;;;5054123;28;20029;-53
2024/01/01 09:21:24;;;;;;;10.10;1.50;;;7.70;99.90;;;;;;5054401;28;20033;-54
2024/01/01 09:23:50;;;;;;;4.97;0.90;;;7.70;99.90;;;;;;5054531;28;20386;-54
2024/01/01 09:26:16;;;;;;;6.67;1.50;;;7.70;99.90;;;;;;5054204;28;20040;-54
2024/01/01 09:28:41;;;;;;;3.90;1.27;;;7.70;99.90;;;;;;5053862;28;20033;-53
2024/01/01 09:31:07;;;;;;;11.67;3.77;;;7.80;99.90;;;;;;5053963;28;20035;-53
2024/01/01 09:33:33;;;;;;;4.37;1.50;;;7.80;99.90;;;;;;5054060;28;20436;-54
2024/01/01 09:35:58;;;;;;;3.60;1.00;;;7.80;99.90;;;;;;5054001;28;20387;-54
2024/01/01 09:38:24;;;;;;;8.83;1.27;;;7.80;99.90;;;;;;5054001;28;20044;-53
2024/01/01 09:40:54;;;;;;;7.37;1.13;;;7.90;99.90;;;;;;5053742;28;20128;-54
2024/01/01 09:43:21;;;;;;;2.42;1.05;;;7.80;99.90;;;;;;5053588;28;20132;-53
2024/01/01 09:45:48;;;;;;;6.60;1.40;;;7.80;99.90;;;;;;5052773;28;20065;-55
2024/01/01 09:48:14;;;;;;;3.43;0.70;;;7.90;99.90;;;;;;5053746;28;20033;-55
2024/01/01 09:50:42;;;;;;;8.07;0.90;;;7.90;99.90;;;;;;5053385;28;20032;-55
2024/01/01 09:53:09;;;;;;;4.10;1.00;;;7.90;99.90;;;;;;5053785;28;20370;-54
2024/01/01 09:55:35;;;;;;;8.70;1.80;;;7.90;99.90;;;;;;5053696;28;20021;-54
2024/01/01 09:58:00;;;;;;;4.50;1.20;;;7.90;99.90;;;;;;5053491;28;20040;-55
2024/01/01 10:00:26;;;;;;;4.50;1.17;;;7.90;99.90;;;;;;5053488;28;20130;-55
2024/01/01 10:03:06;;;;;;;3.33;0.90;;;7.90;99.90;;;;;;5053420;28;20390;-54
2024/01/01 10:05:32;;;;;;;4.80;1.00;;;7.90;99.90;;;;;;5053432;28;20037;-54
2024/01/01 10:08:14;;;;;;;7.40;1.50;;;7.90;99.90;;;;;;5053495;28;20208;-55
2024/01/01 10:10:42;;;;;;;5.10;1.13;;;8.00;99.90;;;;;;5053193;28;20280;-54
2024/01/01 10:13:16;;;;;;;3.20;1.20;;;8.00;99.90;;;;;;5053227;28;20029;-53
2024/01/01 10:15:43;;;;;;;4.20;1.13;;;8.00;99.90;;;;;;5053318;28;20036;-54
2024/01/01 10:18:10;;;;;;;5.00;1.00;;;8.00;99.90;;;;;;5053138;28;20029;-55
2024/01/01 10:20:37;;;;;;;5.53;1.03;;;8.00;99.90;;;;;;5052909;28;20547;-52
2024/01/01 10:23:21;;;;;;;5.23;1.00;;;8.00;99.90;;;;;;5053018;28;20087;-55
2024/01/01 10:25:49;;;;;;;5.03;1.00;;;8.10;99.90;;;;;;5053087;28;20033;-54
2024/01/01 10:28:16;;;;;;;4.40;0.85;;;8.10;99.90;;;;;;5053029;28;20182;-51
2024/01/01 10:30:48;;;;;;;7.17;1.20;;;8.10;99.90;;;;;;5034839;28;20056;-54
2024/01/01 10:33:15;;;;;;;7.97;1.60;;;8.10;99.90;;;;;;5052686;28;20040;-56
2024/01/01 10:35:42;;;;;;;6.13;1.30;;;8.20;99.90;;;;;;5052906;28;20037;-55
2024/01/01 10:38:11;;;;;;;6.50;1.00;;;8.30;99.90;;;;;;5052741;28;20029;-55
2024/01/01 10:40:37;;;;;;;3.38;0.95;;;8.30;99.90;;;;;;5052595;28;20036;-55
2024/01/01 10:43:04;;;;;;;3.60;0.87;;;8.40;99.90;;;;;;5052541;28;20047;-54
2024/01/01 10:45:29;;;;;;;7.40;1.03;;;8.40;99.90;;;;;;5053172;28;20041;-52
2024/01/01 10:47:59;;;;;;;4.07;0.87;;;8.30;99.90;;;;;;5052593;28;20029;-55
2024/01/01 10:50:30;;;;;;;4.80;1.02;;;8.30;99.90;;;;;;5052305;28;20039;-55
2024/01/01 10:53:03;;;;;;;7.00;1.07;;;8.30;99.90;;;;;;5052768;28;20028;-56
2024/01/01 10:55:54;;;;;;;8.60;0.90;;;8.30;99.90;;;;;;5052592;28;20036;-55
2024/01/01 10:58:45;;;;;;;2.73;0.50;;;8.30;99.90;;;;;;5052230;28;20612;-56
2024/01/01 11:01:15;;;;;;;6.97;0.90;;;8.30;99.90;;;;;;5052434;28;20040;-51
2024/01/01 11:03:46;;;;;;;4.33;0.63;;;8.20;99.90;;;;;;5052608;28;20082;-54
2024/01/01 11:06:26;;;;;;;3.30;0.97;;;8.20;99.90;;;;;;5052411;28;20111;-54
2024/01/01 11:08:54;;;;;;;5.90;0.83;;;8.20;99.90;;;;;;5051976;28;20401;-54
2024/01/01 11:11:27;;;;;;;5.07;1.27;;;8.30;99.90;;;;;;5052206;28;20032;-54
2024/01/01 11:13:54;;;;;;;6.33;1.00;;;8.20;99.90;;;;;;5052196;28;20032;-55
2024/01/01 11:16:21;;;;;;;5.17;0.70;;;8.30;99.90;;;;;;5052121;28;20070;-55
2024/01/01 11:18:47;;;;;;;4.30;0.63;;;8.30;99.90;;;;;;5051863;28;20171;-55
2024/01/01 11:21:30;;;;;;;4.50;1.10;;;8.30;99.90;;;;;;5051931;28;20074;-56
2024/01/01 11:24:01;;;;;;;3.13;0.93;;;8.40;99.90;;;;;;5034229;28;20029;-56
2024/01/01 11:26:32;;;;;;;7.43;1.47;;;8.40;99.90;;;;;;5052071;28;20036;-55
2024/01/01 11:29:16;;;;;;;5.33;0.97;;;8.40;99.90;;;;;;5051806;28;20123;-56
2024/01/01 11:31:42;;;;;;;5.27;0.93;;;8.30;99.90;;;;;;5051805;28;20432;-54
2024/01/01 11:34:09;;;;;;;7.60;1.13;;;8.30;99.90;;;;;;5051863;28;20021;-55
2024/01/01 11:36:40;;;;;;;6.73;1.57;;;8.30;99.90;;;;;;5051876;28;20398;-56
2024/01/01 11:39:06;;;;;;;4.93;1.07;;;8.40;99.90;;;;;;5051625;28;20036;-55
2024/01/01 11:41:33;;;;;;;6.43;1.07;;;8.30;99.90;;;;;;5051756;28;20029;-56
2024/01/01 11:44:14;;;;;;;4.53;0.97;;;8.40;99.90;;;;;;5051697;28;20518;-54
2024/01/01 11:46:41;;;;;;;6.67;0.80;;;8.40;99.90;;;;;;5051755;28;20033;-54
2024/01/01 11:49:10;;;;;;;4.67;1.10;;;8.50;99.90;;;;;;5051483;28;20470;-54
2024/01/01 11:51:57;;;;;;;4.32;0.80;;;8.50;99.90;;;;;;5051754;28;20445;-55
2024/01/01 11:54:26;;;;;;;9.63;1.40;;;8.50;99.90;;;;;;5034040;28;20420;-55
2024/01/01 11:56:59;;;;;;;6.93;1.45;;;8.50;99.90;;;;;;5051707;28;20036;-55
2024/01/01 11:59:27;;;;;;;2.43;0.90;;;8.50;99.90;;;;;;5051411;28;20478;-55
2024/01/01 12:01:53;;;;;;;3.20;1.00;;;8.50;99.90;;;;;;5051573;28;20041;-56
2024/01/01 12:04:20;;;;;;;5.57;0.87;;;8.60;99.90;;;;;;5051585;28;20044;-55
2024/01/01 12:06:51;;;;;;;12.30;4.40;;;8.60;99.90;;;;;;5051544;28;20028;-56
2024/01/01 12:09:18;;;;;;;7.00;1.50;;;8.80;99.90;;;;;;5052648;28;20051;-55
2024/01/01 12:11:44;;;;;;;5.73;2.50;;;8.80;99.90;;;;;;5055476;28;20059;-56
2024/01/01 12:14:09;;;;;;;5.67;1.23;;;8.80;99.90;;;;;;5055853;28;20032;-55
2024/01/01 12:16:36;;;;;;;4.13;1.17;;;8.80;99.90;;;;;;5037740;28;20036;-55
2024/01/01 12:19:04;;;;;;;8.27;1.57;;;8.90;99.90;;;;;;5055264;28;20090;-55
2024/01/01 12:21:43;;;;;;;7.30;1.77;;;8.90;99.90;;;;;;5055253;28;20076;-56
2024/01/01 12:24:13;;;;;;;8.00;1.35;;;8.80;99.90;;;;;;5055438;28;20029;-55
2024/01/01 12:26:39;;;;;;;7.57;1.30;;;8.80;99.90;;;;;;5055401;28;20041;-55
2024/01/01 12:29:06;;;;;;;5.53;0.90;;;8.90;99.90;;;;;;5055104;28;20060;-55
2024/01/01 12:31:32;;;;;;;4.37;1.00;;;8.90;99.90;;;;;;5055104;28;20029;-55
2024/01/01 12:33:58;;;;;;;7.63;1.20;;;8.90;99.90;;;;;;5055146;28;20470;-55
2024/01/01 12:36:23;;;;;;;4.30;1.23;;;8.90;99.90;;;;;;5055292;28;20025;-55
2024/01/01 12:38:49;;;;;;;10.17;1.17;;;8.90;99.90;;;;;;5054877;28;20035;-52
2024/01/01 12:41:17;;;;;;;7.50;1.40;;;9.10;99.90;;;;;;5055043;28;20028;-56
2024/01/01 12:43:42;;;;;;;4.67;1.10;;;9.20;99.90;;;;;;5054925;28;20037;-56
2024/01/01 12:46:08;;;;;;;7.63;1.30;;;9.20;99.90;;;;;;5055074;28;20508;-56
2024/01/01 12:48:34;;;;;;;7.57;1.13;;;9.20;99.90;;;;;;5054620;28;20064;-55
2024/01/01 12:51:00;;;;;;;7.63;1.40;;;9.40;99.90;;;;;;5054876;28;20029;-55
2024/01/01 12:53:26;;;;;;;4.63;1.60;;;9.40;99.90;;;;;;5054795;28;20021;-55